createdAt,value
2023-04-15T00:02:29.773Z,79.80
2023-04-15T00:07:32.305Z,79.88
2023-04-15T00:12:34.123Z,79.87
2023-04-15T00:17:36.340Z,79.74
2023-04-15T00:22:38.182Z,79.56
2023-04-15T00:27:40.729Z,79.70
2023-04-15T00:32:42.701Z,79.90
2023-04-15T00:37:46.217Z,79.94
2023-04-15T00:42:48.362Z,79.74
2023-04-15T00:47:51.460Z,79.97
2023-04-15T00:52:53.284Z,80.03
2023-04-15T00:57:55.125Z,79.95
2023-04-15T01:02:58.030Z,79.84
2023-04-15T01:08:00.363Z,79.89
2023-04-15T01:13:03.717Z,79.80
2023-04-15T01:18:06.125Z,80.02
2023-04-15T01:23:08.531Z,80.22
2023-04-15T01:28:10.918Z,80.19
2023-04-15T01:33:13.378Z,79.95
2023-04-15T01:38:15.496Z,79.94
2023-04-15T01:43:17.880Z,79.75
2023-04-15T01:48:19.831Z,80.22
2023-04-15T01:53:21.694Z,80.21
2023-04-15T01:58:23.532Z,80.12
2023-04-15T02:03:25.918Z,80.20
2023-04-15T02:08:28.693Z,80.17
2023-04-15T02:13:31.814Z,80.03
2023-04-15T02:18:33.824Z,80.10
2023-04-15T02:23:35.923Z,80.07
2023-04-15T02:28:37.812Z,80.27
2023-04-15T02:33:39.651Z,80.40
2023-04-15T02:38:47.623Z,80.24
2023-04-15T02:43:51.010Z,80.46
2023-04-15T02:48:53.951Z,80.46
2023-04-15T02:53:58.489Z,80.50
2023-04-15T02:59:01.058Z,80.37
2023-04-15T03:04:03.358Z,80.55
2023-04-15T03:09:05.658Z,80.35
2023-04-15T03:14:13.172Z,80.34
2023-04-15T03:19:19.479Z,80.57
2023-04-15T03:24:21.433Z,80.52
2023-04-15T03:29:24.060Z,80.49
2023-04-15T03:34:25.918Z,80.78
2023-04-15T03:39:27.838Z,80.70
2023-04-15T03:44:29.867Z,81.12
2023-04-15T03:49:31.805Z,81.04
2023-04-15T03:54:33.836Z,81.19
2023-04-15T03:59:35.674Z,81.32
2023-04-15T04:04:37.618Z,81.55
2023-04-15T04:09:40.820Z,81.51
2023-04-15T04:14:42.695Z,81.57
2023-04-15T04:19:44.668Z,81.84
2023-04-15T04:24:46.648Z,81.80
2023-04-15T04:29:50.074Z,81.86
2023-04-15T04:34:51.914Z,81.91
2023-04-15T04:39:53.897Z,81.90
2023-04-15T04:44:55.688Z,81.76
2023-04-15T04:49:57.509Z,81.60
2023-04-15T04:54:59.548Z,81.56
2023-04-15T05:00:02.156Z,81.48
2023-04-15T05:05:07.958Z,81.38
2023-04-15T05:10:10.436Z,81.46
2023-04-15T05:15:12.401Z,81.15
2023-04-15T05:20:14.558Z,81.31
2023-04-15T05:25:17.039Z,81.13
2023-04-15T05:30:19.183Z,81.09
2023-04-15T05:35:21.669Z,81.17
2023-04-15T05:40:23.696Z,81.13
2023-04-15T05:45:25.616Z,81.05
2023-04-15T05:50:27.865Z,81.02
2023-04-15T05:55:29.680Z,81.15
2023-04-15T06:00:31.441Z,81.08
2023-04-15T06:05:33.533Z,81.06
2023-04-15T06:10:36.927Z,81.22
2023-04-15T06:15:39.003Z,81.23
2023-04-15T06:20:44.546Z,81.34
2023-04-15T06:25:46.720Z,81.17
2023-04-15T06:30:48.669Z,81.23
2023-04-15T06:35:51.071Z,81.43
2023-04-15T06:40:52.850Z,81.40
2023-04-15T06:45:54.743Z,81.39
2023-04-15T06:50:58.403Z,81.35
2023-04-15T06:56:00.202Z,81.44
2023-04-15T07:01:03.978Z,81.77
2023-04-15T07:06:07.215Z,81.46
2023-04-15T07:11:09.146Z,81.48
2023-04-15T07:16:11.362Z,81.65
2023-04-15T07:21:13.347Z,81.81
2023-04-15T07:26:15.260Z,81.50
2023-04-15T07:31:17.556Z,81.53
2023-04-15T07:36:19.750Z,81.55
2023-04-15T07:41:22.609Z,81.58
2023-04-15T07:46:26.906Z,81.63
2023-04-15T07:51:29.811Z,81.68
2023-04-15T07:56:31.560Z,81.54
2023-04-15T08:01:33.416Z,81.79
2023-04-15T08:06:37.498Z,81.86
2023-04-15T08:11:39.485Z,81.43
2023-04-15T08:16:41.540Z,81.60
2023-04-15T08:21:43.536Z,81.54
2023-04-15T08:26:46.980Z,81.72
2023-04-15T08:31:49.248Z,81.68
2023-04-15T08:36:51.642Z,81.86
2023-04-15T08:42:05.985Z,81.67
2023-04-15T08:47:09.356Z,81.60
2023-04-15T08:52:12.735Z,81.57
2023-04-15T08:57:15.866Z,81.47
2023-04-15T09:02:18.206Z,81.41
2023-04-15T09:07:20.539Z,81.52
2023-04-15T09:12:22.528Z,81.60
2023-04-15T09:17:26.990Z,81.57
2023-04-15T09:22:33.422Z,81.64
2023-04-15T09:27:37.739Z,81.72
2023-04-15T09:32:52.612Z,81.92
2023-04-15T09:38:10.238Z,81.99
2023-04-15T09:43:17.716Z,81.79
2023-04-15T09:48:27.467Z,81.87
2023-04-15T09:53:31.745Z,82.00
2023-04-15T09:58:35.806Z,81.93
2023-04-15T10:03:40.221Z,81.96
2023-04-15T10:08:42.817Z,81.66
2023-04-15T10:13:49.348Z,81.87
2023-04-15T10:18:55.694Z,81.80
2023-04-15T10:23:58.733Z,81.71
2023-04-15T10:29:01.790Z,81.61
2023-04-15T10:34:06.626Z,81.52
2023-04-15T10:39:34.361Z,81.71
2023-04-15T10:44:43.550Z,81.47
2023-04-15T10:49:57.203Z,81.27
2023-04-15T10:55:11.083Z,81.51
2023-04-15T11:00:14.175Z,81.28
2023-04-15T11:05:17.743Z,81.26
2023-04-15T11:10:26.048Z,81.20
2023-04-15T11:15:33.353Z,81.20
2023-04-15T11:20:37.696Z,80.98
2023-04-15T11:25:39.605Z,80.97
2023-04-15T11:30:42.841Z,81.04
2023-04-15T11:37:07.216Z,80.82
2023-04-15T11:42:18.735Z,80.94
2023-04-15T11:47:24.997Z,80.90
2023-04-15T11:52:27.334Z,80.67
2023-04-15T11:57:32.730Z,80.60
2023-04-15T12:03:13.011Z,80.73
2023-04-15T12:08:15.030Z,80.53
2023-04-15T12:13:17.044Z,80.46
2023-04-15T12:18:48.914Z,80.39
2023-04-15T12:23:56.207Z,80.29
2023-04-15T12:49:11.185Z,79.78
2023-04-15T13:00:39.330Z,79.56
2023-04-15T13:12:47.068Z,79.33
2023-04-15T13:18:19.577Z,79.23
2023-04-15T13:23:21.528Z,79.12
2023-04-15T13:28:23.680Z,79.18
2023-04-15T13:33:25.999Z,79.05
2023-04-15T13:38:30.720Z,78.87
2023-04-15T13:43:34.453Z,78.81
2023-04-15T13:49:03.037Z,78.67
2023-04-15T13:54:05.140Z,78.64
2023-04-15T13:59:08.783Z,78.34
2023-04-15T14:04:11.061Z,78.33
2023-04-15T14:09:14.077Z,78.52
2023-04-15T14:14:16.561Z,78.50
2023-04-15T14:19:18.578Z,78.54
2023-04-15T14:24:22.970Z,78.45
2023-04-15T14:29:25.136Z,78.38
2023-04-15T14:34:27.485Z,78.40
2023-04-15T14:39:29.427Z,78.37
2023-04-15T14:49:33.077Z,78.35
2023-04-15T14:54:35.151Z,78.21
2023-04-15T14:59:36.959Z,78.15
2023-04-15T15:05:34.376Z,77.97
2023-04-15T15:10:49.092Z,77.90
2023-04-15T15:15:52.188Z,77.84
2023-04-15T15:26:23.550Z,77.48
2023-04-15T15:31:28.654Z,77.39
2023-04-15T15:48:41.673Z,77.52
2023-04-15T15:53:44.950Z,77.50
2023-04-15T15:58:49.125Z,77.40
2023-04-15T16:03:51.381Z,77.42
2023-04-15T16:08:53.414Z,77.39
2023-04-15T16:13:55.384Z,77.31
2023-04-15T16:19:00.058Z,77.40
2023-04-15T16:24:02.359Z,77.44
2023-04-15T16:29:04.863Z,77.43
2023-04-15T16:34:07.209Z,77.35
2023-04-15T16:39:09.205Z,77.31
2023-04-15T16:44:11.424Z,77.50
2023-04-15T16:49:13.573Z,77.43
2023-04-15T16:54:15.594Z,77.37
2023-04-15T16:59:17.535Z,77.22
2023-04-15T17:04:19.469Z,77.24
2023-04-15T17:09:21.750Z,77.11
2023-04-15T17:14:23.595Z,77.22
2023-04-15T17:19:26.946Z,77.17
2023-04-15T17:24:28.962Z,77.41
2023-04-15T17:29:33.746Z,77.45
2023-04-15T17:34:50.757Z,77.35
2023-04-15T17:39:55.458Z,77.41
2023-04-15T17:44:57.287Z,77.49
2023-04-15T17:49:59.016Z,77.53
2023-04-15T17:55:00.810Z,77.38
2023-04-15T18:00:02.808Z,77.36
2023-04-15T18:05:14.984Z,77.33
2023-04-15T18:10:16.965Z,77.47
2023-04-15T18:15:19.129Z,77.54
2023-04-15T18:20:23.809Z,77.53
2023-04-15T18:25:31.314Z,77.82
2023-04-15T18:30:53.307Z,77.80
2023-04-15T18:35:56.324Z,77.72
2023-04-15T18:40:58.795Z,77.89
2023-04-15T18:46:02.126Z,78.00
2023-04-15T18:51:04.156Z,78.14
2023-04-15T18:56:07.236Z,78.17
2023-04-15T19:01:10.138Z,78.08
2023-04-15T19:06:13.775Z,78.19
2023-04-15T19:11:15.873Z,78.17
2023-04-15T19:16:17.733Z,78.15
2023-04-15T19:21:22.741Z,78.20
2023-04-15T19:26:50.147Z,78.12
2023-04-15T19:31:51.962Z,78.18
2023-04-15T19:36:54.765Z,78.17
2023-04-15T19:41:56.672Z,78.16
2023-04-15T19:46:58.514Z,78.11
2023-04-15T19:52:04.331Z,78.18
2023-04-15T19:57:06.609Z,78.27
2023-04-15T20:02:08.729Z,78.25
2023-04-15T20:07:10.877Z,78.33
2023-04-15T20:12:51.281Z,78.37
2023-04-15T20:17:37.981Z,78.36
2023-04-15T20:22:39.889Z,78.26
2023-04-15T20:27:52.177Z,78.30
2023-04-15T20:32:53.966Z,78.45
2023-04-15T20:37:55.787Z,78.43
2023-04-15T20:42:57.650Z,78.46
2023-04-15T20:47:59.753Z,78.47
2023-04-15T20:53:01.661Z,78.42
2023-04-15T20:58:03.524Z,78.63
2023-04-15T21:03:05.807Z,78.61
2023-04-15T21:08:07.976Z,78.66
2023-04-15T21:13:09.842Z,78.69
2023-04-15T21:18:11.577Z,78.69
2023-04-15T21:23:13.417Z,78.79
2023-04-15T21:28:15.262Z,78.80
2023-04-15T21:33:20.208Z,78.79
2023-04-15T21:38:23.358Z,78.96
2023-04-15T21:43:25.845Z,79.00
2023-04-15T21:48:28.032Z,79.03
2023-04-15T21:53:30.154Z,78.73
2023-04-15T21:58:31.985Z,79.00
2023-04-15T22:03:35.282Z,79.12
2023-04-15T22:09:11.358Z,79.29
2023-04-15T22:14:15.926Z,79.19
2023-04-15T22:19:18.231Z,79.06
2023-04-15T22:24:32.985Z,79.24
2023-04-15T22:29:41.753Z,79.32
2023-04-15T22:34:43.590Z,79.28
2023-04-15T22:39:45.612Z,79.36
2023-04-15T22:44:47.802Z,79.30
2023-04-15T22:49:52.628Z,79.34
2023-04-15T22:54:54.469Z,79.35
2023-04-15T22:59:56.310Z,79.34
2023-04-15T23:04:58.315Z,79.52
2023-04-15T23:10:01.504Z,79.44
2023-04-15T23:15:03.859Z,79.61
2023-04-15T23:20:06.566Z,79.53
2023-04-15T23:25:10.859Z,79.60
2023-04-15T23:30:12.708Z,79.61
2023-04-15T23:40:40.543Z,79.57
2023-04-15T23:45:51.520Z,79.58
2023-04-15T23:56:44.563Z,79.46
